Dragos Keseru

Scout - FCSB
17 Jul 2027
Samstag
Verarbeitung

Persönlichkeit

Anpassungsfähigkeit (2) Ehrgeiz (13) Kontroverse (2) Loyalität (14) Druck (1) Professionalität (17) Fairness (13) Temperament (7)

Profil

Trainerstil Demokratisch
Lizenz Kontinentale Pro
Entschlossenheit 12
Menschenführung 11
Motivation 13
Disziplin 6
Arbeitszufriedenheit
70%
Ermüdung
0%
Rolle Scout
Gehalt 24.2K p/W
Vertrag 14.03.2029

Leistung

Verhalten Gut
Trainingseffektivität
23%
Spielerentwicklung
35%
Verletzungsprävention
65%
Taktische Umsetzung
35%

Letzte Ereignisse

Spieler begutachtet jetzt
Nahm an einer Scouting-Besprechung teil jetzt
Empfahl ein Transferziel jetzt
Nahm an einer Scouting-Besprechung teil 7T her
Empfahl ein Transferziel 7T her
Nahm an einer Scouting-Besprechung teil 7T her
Spieler begutachtet 7T her
Spieler begutachtet 7T her

Aktuell beobachtet

58
Spieler Verein Status Fähigkeit Vertrauen Beobachtet Zuletzt beobachtet Letzte Stimme
Michael Craig Leyton Orient Aktiv 112 / 103 40% 2 16.07.2027 -
Reuell Walters Luton Town Aktiv 116 / 126 40% 1 16.07.2027 -
Max Conway Bolton Wanderers Aktiv 116 / 126 40% 1 16.07.2027 -
Ryoya Morishita Blackburn Rovers Aktiv 131 / 133 40% 1 12.07.2027 -
Nathan Broadhead Wrexham Aktiv 121 / 132 40% 1 12.07.2027 -
Wes Burns Leicester City Aktiv 123 / 131 40% 1 12.07.2027 -
Jenson Metcalfe Bradford City Aktiv 114 / 125 40% 1 09.07.2027 -
Marvin Kaleta Rotherham United Aktiv 112 / 108 40% 1 09.07.2027 -
Sam Curtis Swindon Town Aktiv 111 / 112 40% 1 09.07.2027 -
Ben Chrisene Sheffield Wednesday Aktiv 122 / 124 40% 1 07.07.2027 -
Riley Owen Wycombe Wanderers Aktiv 114 / 105 40% 1 07.07.2027 -
Tommaso Barbieri Cremonese Aktiv 128 / 140 40% 1 07.07.2027 -
Isaac Ogundere AFC Wimbledon Aktiv 109 / 103 40% 2 05.07.2027 -
Carlos Mora Universitatea Craiova Aktiv 116 / 125 65% 1 05.07.2027 Befürworten
Finley Burns Wigan Athletic Aktiv 101 / 116 40% 1 05.07.2027 -
Johnly Yfeko Exeter City Aktiv 109 / 116 40% 3 03.07.2027 -
Justin Devenny Stoke City Aktiv 124 / 129 40% 1 03.07.2027 -
Georgie Gent Barnsley Aktiv 120 / 119 40% 1 22.06.2027 -
Jay McGrath Doncaster Rovers Aktiv 118 / 118 40% 1 22.06.2027 -
James Dornelly Peterborough United Aktiv 110 / 104 40% 1 14.06.2027 -
Daniel Tonoli Modena Aktiv 117 / 125 40% 1 14.06.2027 -
Simon Elisor Universitatea Craiova Abgelehnt 114 / 126 65% 1 03.06.2027 Ablehnen
Claudiu Ratiu Astra Verloren 132 / 146 65% 1 02.06.2027 -
Ştefan Baiaram Universitatea Craiova Verloren 121 / 118 65% 1 01.06.2027 -
Alessandro Bianco Modena Aktiv 122 / 128 40% 1 31.05.2027 -
Camilo Durán Bloemfontein Celtic Aktiv 131 / 130 40% 1 18.01.2027 -
Gedson Fernandes Spartak Moscow Aktiv 136 / 129 40% 3 30.12.2026 Beobachten
Jeffrey Asamoah BA All Stars Aktiv 111 / 114 40% 2 29.12.2026 -
Ilir Krasniqi Polissia Aktiv 114 / 114 40% 2 29.12.2026 -
Simone Canestrelli Pisa Aktiv 124 / 129 40% 1 27.12.2026 -
Oleksandr Romanchuk Universitatea Craiova Aktiv 113 / 129 40% 2 25.12.2026 -
Diego Costa Krasnodar Aktiv 140 / 140 40% 3 25.12.2026 -
Arsen Adamov Akhmat Grozny Aktiv 116 / 119 40% 3 24.12.2026 -
Danil Glebov Dinamo Moscow Aktiv 138 / 130 40% 2 24.12.2026 -
Maicon Levski Aktiv 121 / 118 40% 6 23.12.2026 -
Alexandr Chernikov Krasnodar Aktiv 139 / 131 40% 1 18.12.2026 -
Mitchel Bakker Rostov Aktiv 133 / 129 40% 1 17.12.2026 -
Ciro De Angelis Siah Jamegan Aktiv 122 / 136 40% 1 16.12.2026 -
Hlompho Billiat Free State Stars Aktiv 128 / 127 40% 2 10.12.2026 -
Musab Al-Juwayr Al-Qadisiyah Aktiv 136 / 130 40% 2 10.12.2026 -
Isaac Solet CSKA Sofia Aktiv 121 / 115 40% 1 06.12.2026 -
Ben Nelson Leicester City Aktiv 121 / 134 40% 1 05.12.2026 -
Pedro Bicalho Qarabag Aktiv 139 / 129 40% 2 02.12.2026 -
Pedro Henrique Shakhtar Aktiv 143 / 130 40% 3 01.12.2026 Beobachten
Volodymyr Brazhko Dynamo Kyiv Aktiv 137 / 129 40% 2 30.11.2026 -
Mohamed Ali Ben Romdhane Al Ahly Aktiv 130 / 134 40% 1 28.11.2026 -
Mihály Kata MTK Budapest Aktiv 116 / 117 40% 1 18.11.2026 -
Nikita Krivtsov Krasnodar Aktiv 118 / 126 40% 1 16.11.2026 -
Vasco Sousa Porto Aktiv 128 / 132 40% 1 15.11.2026 -
Álex Centelles Levski Aktiv 118 / 126 40% 1 03.11.2026 -
Filip Kaloč Ludogorets Aktiv 135 / 121 40% 1 25.10.2026 -
Frans Krätzig Red Bull Salzburg Aktiv 134 / 127 40% 1 24.10.2026 -
James Eto'o CSKA Sofia Aktiv 127 / 124 40% 2 21.10.2026 -
Jorge Cabello Levante Aktiv 131 / 123 40% 1 16.10.2026 -
Christian Krasnodar Aktiv 135 / 131 40% 2 12.10.2026 Mehr Infos nötig
Mathias Kjølø Rosenborg Aktiv 115 / 124 40% 1 11.10.2026 -
Emil Breivik Molde Aktiv 145 / 135 40% 1 05.10.2026 -
Florentino Luís Ipswich Town Aktiv 148 / 145 40% 1 01.08.2026 -